Time;durP1;ratioP1;P1;durP2;ratioP2;P2;SDS_P1;SDS_P2;PMS_P1;PMS_P2;Temp;Humidity;BMP_temperature;BMP_pressure;BME280_temperature;BME280_humidity;BME280_pressure;Samples;Min_cycle;Max_cycle;Signal;HPM_P1;HPM_P2
2021/03/24 00:01:39;;;;;;;10.30;8.47;;;9.10;36.80;;;;;;10485778;28;20228;-69
2021/03/24 00:06:42;;;;;;;10.37;8.17;;;9.10;36.80;;;;;;10480804;28;20228;-70
2021/03/24 00:11:45;;;;;;;9.77;8.67;;;9.10;36.90;;;;;;10485345;28;20731;-69
2021/03/24 00:16:49;;;;;;;10.53;7.83;;;9.10;37.10;;;;;;10486107;28;20231;-69
2021/03/24 00:21:51;;;;;;;9.13;8.13;;;9.20;37.00;;;;;;10486554;28;20316;-69
2021/03/24 00:26:54;;;;;;;10.27;9.20;;;9.20;36.80;;;;;;10488864;28;20224;-69
2021/03/24 00:31:56;;;;;;;11.33;9.37;;;9.20;37.00;;;;;;10492310;28;20222;-70
2021/03/24 00:36:59;;;;;;;10.97;9.43;;;9.20;37.00;;;;;;10488714;28;20220;-70
2021/03/24 00:42:03;;;;;;;10.40;9.30;;;9.30;37.00;;;;;;10491560;28;20278;-70
2021/03/24 00:47:05;;;;;;;12.47;9.37;;;9.30;36.90;;;;;;10482748;28;20232;-70
2021/03/24 00:52:08;;;;;;;12.67;9.80;;;9.20;36.60;;;;;;10490612;28;20234;-70
2021/03/24 00:57:11;;;;;;;16.53;11.23;;;9.20;37.30;;;;;;10488733;28;20235;-70
2021/03/24 01:02:13;;;;;;;24.47;15.33;;;9.10;36.50;;;;;;10491133;28;20225;-70
2021/03/24 01:07:17;;;;;;;19.57;12.83;;;9.10;36.40;;;;;;10485741;28;20231;-70
2021/03/24 01:12:20;;;;;;;16.93;12.20;;;9.00;36.40;;;;;;10490636;28;20242;-69
2021/03/24 01:17:22;;;;;;;11.80;10.20;;;8.90;36.50;;;;;;10488769;28;20303;-70
2021/03/24 01:22:24;;;;;;;12.63;9.63;;;8.80;36.50;;;;;;10481981;28;20232;-70
2021/03/24 01:27:27;;;;;;;9.40;7.40;;;8.80;36.60;;;;;;10483685;28;20307;-69
2021/03/24 01:32:30;;;;;;;9.93;8.50;;;8.70;36.40;;;;;;10490707;28;20588;-70
2021/03/24 01:37:32;;;;;;;9.70;8.70;;;8.70;36.30;;;;;;10487621;28;20270;-69
2021/03/24 01:42:35;;;;;;;10.03;9.03;;;8.60;36.30;;;;;;10489177;28;20220;-69
2021/03/24 01:47:38;;;;;;;11.10;9.43;;;8.50;36.20;;;;;;10484630;28;20232;-69
2021/03/24 01:52:40;;;;;;;11.43;9.77;;;8.40;36.20;;;;;;10487282;28;20310;-69
2021/03/24 01:57:45;;;;;;;10.77;9.20;;;8.40;36.30;;;;;;10485004;28;20228;-70
2021/03/24 02:02:47;;;;;;;11.10;9.53;;;8.30;36.60;;;;;;10486893;28;20224;-70
2021/03/24 02:07:53;;;;;;;10.80;8.50;;;8.20;36.60;;;;;;10485607;28;20212;-70
2021/03/24 02:13:01;;;;;;;10.07;8.90;;;8.20;36.80;;;;;;10484741;28;20216;-69
2021/03/24 02:18:04;;;;;;;9.80;8.80;;;8.10;36.80;;;;;;10484971;28;20229;-69
2021/03/24 02:23:18;;;;;;;9.67;8.70;;;8.00;36.50;;;;;;10489880;28;20295;-69
2021/03/24 02:28:23;;;;;;;10.30;9.03;;;7.90;36.90;;;;;;10490038;28;20474;-69
2021/03/24 02:33:29;;;;;;;9.57;8.50;;;7.80;36.80;;;;;;10496452;28;20767;-70
2021/03/24 02:38:34;;;;;;;9.57;8.57;;;7.60;36.90;;;;;;10493086;28;20224;-69
2021/03/24 02:43:38;;;;;;;10.23;8.80;;;7.50;36.90;;;;;;10495553;28;20235;-70
2021/03/24 02:48:42;;;;;;;10.13;8.23;;;7.50;37.00;;;;;;10495069;28;20244;-70
2021/03/24 02:53:45;;;;;;;11.23;9.40;;;7.40;37.20;;;;;;10488022;28;20224;-70
2021/03/24 02:58:50;;;;;;;11.00;9.57;;;7.30;37.10;;;;;;10494863;28;20220;-70
2021/03/24 03:03:56;;;;;;;10.30;9.13;;;7.30;37.60;;;;;;10491198;28;20231;-70
2021/03/24 03:09:01;;;;;;;10.60;8.57;;;7.30;37.50;;;;;;10492856;28;20242;-70
2021/03/24 03:14:10;;;;;;;10.97;8.50;;;7.30;37.50;;;;;;10495036;28;20212;-70
2021/03/24 03:19:18;;;;;;;8.87;7.97;;;7.30;37.60;;;;;;10491426;28;20232;-70
2021/03/24 03:24:23;;;;;;;9.40;8.50;;;7.30;37.60;;;;;;10495093;28;20228;-70
2021/03/24 03:29:27;;;;;;;10.40;8.63;;;7.30;37.40;;;;;;10491571;28;20231;-70
2021/03/24 03:34:31;;;;;;;9.30;8.30;;;7.20;37.30;;;;;;10491223;28;20258;-70
2021/03/24 03:39:33;;;;;;;10.10;8.80;;;7.20;37.20;;;;;;10493295;28;20250;-70
2021/03/24 03:44:37;;;;;;;8.87;7.87;;;7.20;37.20;;;;;;10492347;28;20228;-70
2021/03/24 03:49:41;;;;;;;9.73;8.63;;;7.10;37.50;;;;;;10493345;28;20227;-70
2021/03/24 03:54:49;;;;;;;10.30;9.13;;;7.10;37.40;;;;;;10488379;28;20303;-70
2021/03/24 03:59:54;;;;;;;9.53;8.27;;;7.10;37.80;;;;;;10488892;28;20234;-70
2021/03/24 04:05:00;;;;;;;9.13;8.20;;;7.10;37.60;;;;;;10493252;28;20224;-70
2021/03/24 04:10:05;;;;;;;11.10;8.80;;;7.10;37.60;;;;;;10487436;28;20231;-70
2021/03/24 04:15:12;;;;;;;9.83;8.53;;;7.00;37.50;;;;;;10490849;28;20231;-70
2021/03/24 04:20:18;;;;;;;8.30;7.47;;;7.00;37.80;;;;;;10492236;28;20735;-70
2021/03/24 04:25:24;;;;;;;9.13;8.20;;;6.90;37.40;;;;;;10486316;28;20734;-70
2021/03/24 04:30:33;;;;;;;10.60;8.43;;;6.80;37.60;;;;;;10490667;28;20228;-70
2021/03/24 04:35:38;;;;;;;8.00;7.20;;;6.80;37.80;;;;;;10489375;28;20286;-70
2021/03/24 04:40:48;;;;;;;9.80;8.73;;;6.80;37.60;;;;;;10491688;28;20228;-70
2021/03/24 04:45:55;;;;;;;10.87;9.73;;;6.90;38.30;;;;;;10484610;28;20227;-70
2021/03/24 04:50:59;;;;;;;12.67;11.30;;;6.80;37.80;;;;;;10489962;28;20254;-70
2021/03/24 04:56:02;;;;;;;11.33;9.50;;;6.80;37.60;;;;;;10498967;28;20307;-70
2021/03/24 05:01:13;;;;;;;11.37;9.80;;;6.80;37.50;;;;;;10487743;28;20231;-70
2021/03/24 05:06:22;;;;;;;9.03;8.13;;;6.80;38.20;;;;;;10489087;28;20315;-70
2021/03/24 05:11:30;;;;;;;9.30;7.83;;;6.70;38.20;;;;;;10486288;28;20226;-70
2021/03/24 05:16:36;;;;;;;10.13;8.77;;;6.70;38.20;;;;;;10488731;28;20239;-70
2021/03/24 05:21:55;;;;;;;10.30;8.43;;;6.80;38.30;;;;;;10488042;28;20228;-70
2021/03/24 05:27:03;;;;;;;10.63;9.00;;;6.80;38.30;;;;;;10482012;28;20596;-70
2021/03/24 05:32:14;;;;;;;11.00;8.57;;;6.70;38.20;;;;;;10490074;28;20257;-70
2021/03/24 05:37:18;;;;;;;11.37;9.77;;;6.60;38.10;;;;;;10487640;28;20299;-70
2021/03/24 05:42:52;;;;;;;11.40;9.33;;;6.60;38.10;;;;;;10489804;28;20605;-70
2021/03/24 05:48:32;;;;;;;11.87;9.00;;;6.60;38.10;;;;;;10479566;28;20238;-70
2021/03/24 05:54:02;;;;;;;10.90;9.33;;;6.50;38.00;;;;;;10481752;28;20331;-70
2021/03/24 05:59:16;;;;;;;11.23;9.43;;;6.50;38.00;;;;;;10488410;28;20593;-70
2021/03/24 06:04:28;;;;;;;10.47;9.00;;;6.40;37.90;;;;;;10485974;28;20226;-70
2021/03/24 06:10:06;;;;;;;12.60;9.50;;;6.50;38.00;;;;;;10486667;28;20303;-70
2021/03/24 06:15:34;;;;;;;10.70;9.33;;;6.40;38.10;;;;;;10486525;28;20235;-70
2021/03/24 06:20:43;;;;;;;11.73;9.60;;;6.40;38.30;;;;;;10486493;28;20252;-69
2021/03/24 06:25:47;;;;;;;9.00;7.97;;;6.40;38.10;;;;;;10478165;28;20219;-69
2021/03/24 06:31:00;;;;;;;11.80;10.07;;;6.40;37.90;;;;;;10487572;28;20230;-69
2021/03/24 06:36:38;;;;;;;14.83;10.10;;;6.50;38.50;;;;;;10483937;28;20300;-69
2021/03/24 06:42:09;;;;;;;11.93;9.93;;;6.50;38.60;;;;;;10481552;28;20720;-69
2021/03/24 06:47:17;;;;;;;14.63;10.47;;;6.50;38.80;;;;;;10484798;28;20231;-69
2021/03/24 06:52:49;;;;;;;13.10;10.63;;;6.40;38.50;;;;;;10482986;28;20358;-69
2021/03/24 06:58:35;;;;;;;12.80;11.33;;;6.50;38.90;;;;;;10485300;28;20239;-69
2021/03/24 07:04:21;;;;;;;12.07;10.60;;;6.50;39.00;;;;;;10483143;28;20243;-70
2021/03/24 07:09:34;;;;;;;14.77;10.60;;;6.50;39.00;;;;;;10489759;28;20314;-70
2021/03/24 07:14:54;;;;;;;12.67;10.83;;;6.60;39.00;;;;;;10494061;28;20232;-70
2021/03/24 07:20:15;;;;;;;15.83;11.80;;;6.80;39.30;;;;;;10492552;28;20242;-70
2021/03/24 07:25:42;;;;;;;15.57;11.77;;;6.90;39.00;;;;;;10490551;28;20216;-70
2021/03/24 07:31:04;;;;;;;14.13;12.67;;;7.10;38.50;;;;;;10488824;28;20234;-69
2021/03/24 07:36:39;;;;;;;16.63;13.37;;;7.20;38.60;;;;;;10491130;28;20223;-70
2021/03/24 07:42:13;;;;;;;13.37;11.80;;;7.40;38.80;;;;;;10466452;28;20225;-70
2021/03/24 07:47:28;;;;;;;14.53;11.80;;;7.60;38.90;;;;;;10486898;28;20267;-70
2021/03/24 07:52:45;;;;;;;14.63;12.80;;;7.70;39.00;;;;;;10482856;28;20226;-70
2021/03/24 07:57:57;;;;;;;17.13;13.67;;;7.90;38.90;;;;;;10483333;28;20231;-70
2021/03/24 08:03:04;;;;;;;17.73;15.03;;;8.20;38.70;;;;;;10486112;28;20231;-69
2021/03/24 08:08:12;;;;;;;19.10;16.30;;;8.40;38.70;;;;;;10530217;28;20231;-69
2021/03/24 08:13:39;;;;;;;20.00;15.77;;;8.60;38.40;;;;;;10528871;28;20379;-69
2021/03/24 08:18:52;;;;;;;21.80;17.33;;;8.80;38.30;;;;;;10531989;28;20230;-69
2021/03/24 08:24:23;;;;;;;21.90;17.57;;;9.10;38.10;;;;;;10529976;28;20592;-69
2021/03/24 08:29:37;;;;;;;20.70;16.97;;;9.40;38.70;;;;;;10530017;28;20650;-69
2021/03/24 08:34:53;;;;;;;19.33;15.93;;;9.70;38.10;;;;;;10530067;28;20219;-69
2021/03/24 08:40:31;;;;;;;19.90;15.93;;;9.90;37.70;;;;;;10530383;28;20322;-69
2021/03/24 08:45:44;;;;;;;24.10;18.43;;;10.20;36.70;;;;;;10526905;28;20211;-69
2021/03/24 08:50:55;;;;;;;18.47;15.87;;;10.50;36.10;;;;;;10529129;28;20227;-69
2021/03/24 08:56:01;;;;;;;16.03;13.67;;;10.80;35.90;;;;;;10524534;28;20224;-70
2021/03/24 09:01:54;;;;;;;16.30;14.23;;;10.90;35.80;;;;;;10524304;28;20238;-71
2021/03/24 09:07:05;;;;;;;17.47;14.13;;;11.20;35.60;;;;;;10523651;28;20234;-70
2021/03/24 09:12:13;;;;;;;19.03;14.03;;;11.40;35.40;;;;;;10529529;28;20220;-70
2021/03/24 09:17:53;;;;;;;15.03;12.30;;;11.60;34.90;;;;;;10518381;28;20227;-71
2021/03/24 09:23:14;;;;;;;15.13;13.07;;;11.80;33.50;;;;;;10519479;28;20326;-70
2021/03/24 09:28:33;;;;;;;15.27;13.30;;;11.90;34.00;;;;;;10524583;28;20302;-69
2021/03/24 09:33:54;;;;;;;18.20;14.43;;;12.10;34.30;;;;;;10518825;28;20225;-70
2021/03/24 09:39:00;;;;;;;15.43;13.57;;;12.30;34.10;;;;;;10530221;28;20698;-70
2021/03/24 09:44:11;;;;;;;13.93;12.17;;;12.50;34.40;;;;;;10528796;28;20291;-69
2021/03/24 09:49:20;;;;;;;17.13;14.43;;;12.60;34.10;;;;;;10528892;28;20307;-70
2021/03/24 09:54:24;;;;;;;15.73;14.10;;;12.80;33.50;;;;;;10530216;28;20223;-70
2021/03/24 09:59:35;;;;;;;14.13;10.73;;;12.90;34.30;;;;;;10527521;28;20718;-69
2021/03/24 10:04:52;;;;;;;15.23;13.57;;;13.10;35.30;;;;;;10526418;28;20265;-71
2021/03/24 10:09:59;;;;;;;15.57;13.60;;;13.30;33.20;;;;;;10524772;28;20223;-70
2021/03/24 10:15:17;;;;;;;15.07;13.47;;;13.40;34.10;;;;;;10529265;28;20218;-70
2021/03/24 10:20:26;;;;;;;15.83;14.20;;;13.50;33.10;;;;;;10528715;28;20254;-70
2021/03/24 10:25:36;;;;;;;18.03;14.37;;;13.70;32.60;;;;;;10522143;28;20225;-70
2021/03/24 10:30:42;;;;;;;15.77;14.17;;;13.70;32.70;;;;;;10530033;28;20606;-70
2021/03/24 10:35:54;;;;;;;14.90;12.70;;;13.80;32.50;;;;;;10524905;28;20219;-70
2021/03/24 10:41:18;;;;;;;15.47;13.60;;;13.80;32.70;;;;;;10529216;28;20215;-70
2021/03/24 10:46:26;;;;;;;14.90;13.33;;;13.90;31.20;;;;;;10529199;27;20223;-70
2021/03/24 10:51:46;;;;;;;15.97;13.87;;;14.00;31.80;;;;;;10536226;28;20633;-74
2021/03/24 10:56:59;;;;;;;15.80;13.47;;;14.10;32.60;;;;;;10527227;28;20235;-71
2021/03/24 11:02:14;;;;;;;12.93;11.63;;;14.20;31.40;;;;;;10534516;28;20302;-71
2021/03/24 11:07:22;;;;;;;13.63;12.23;;;14.30;31.50;;;;;;10532360;28;20786;-69
2021/03/24 11:12:38;;;;;;;13.77;12.17;;;14.40;31.60;;;;;;10531017;28;20687;-70
2021/03/24 11:17:43;;;;;;;15.07;12.60;;;14.50;31.70;;;;;;10534121;28;20269;-70
2021/03/24 11:22:54;;;;;;;14.90;12.50;;;14.60;31.80;;;;;;10532983;28;20231;-72
2021/03/24 11:28:02;;;;;;;14.80;12.97;;;14.60;31.40;;;;;;10531704;28;20782;-72
2021/03/24 11:33:15;;;;;;;13.67;12.33;;;14.70;31.10;;;;;;10534464;28;20240;-72
2021/03/24 11:38:38;;;;;;;15.70;13.83;;;14.60;30.40;;;;;;10531474;28;20819;-72
2021/03/24 11:43:43;;;;;;;15.37;12.50;;;14.60;30.90;;;;;;10529586;28;20574;-72
2021/03/24 11:49:17;;;;;;;12.90;11.47;;;14.70;31.40;;;;;;10533774;28;20239;-72
2021/03/24 11:54:29;;;;;;;14.10;12.60;;;14.60;31.00;;;;;;10519508;28;20215;-71
2021/03/24 11:59:44;;;;;;;13.30;11.90;;;14.60;31.80;;;;;;10532665;28;20231;-72
2021/03/24 12:05:06;;;;;;;14.70;12.37;;;14.70;30.60;;;;;;10534687;28;20317;-72
2021/03/24 12:10:32;;;;;;;14.67;12.27;;;14.70;30.20;;;;;;10529783;28;20219;-72
2021/03/24 12:15:36;;;;;;;13.27;11.87;;;14.90;30.80;;;;;;10533770;28;20227;-72
2021/03/24 12:20:52;;;;;;;12.77;11.50;;;15.00;31.20;;;;;;10531214;28;20219;-72
2021/03/24 12:25:59;;;;;;;12.77;11.47;;;15.00;30.00;;;;;;10529819;28;20243;-72
2021/03/24 12:31:07;;;;;;;13.17;11.77;;;15.10;30.30;;;;;;10527353;28;20299;-72
2021/03/24 12:36:14;;;;;;;13.17;11.77;;;15.10;29.70;;;;;;10529325;28;20222;-72
2021/03/24 12:41:30;;;;;;;12.07;10.87;;;15.00;30.70;;;;;;10519915;28;20338;-71
2021/03/24 12:46:32;;;;;;;11.80;10.10;;;15.10;30.20;;;;;;10530286;28;20318;-72
2021/03/24 12:51:38;;;;;;;11.70;10.50;;;15.20;31.80;;;;;;10529643;28;20716;-72
2021/03/24 12:57:25;;;;;;;11.47;10.33;;;15.40;30.40;;;;;;10529069;28;20219;-72
2021/03/24 13:02:49;;;;;;;12.27;10.27;;;15.50;30.90;;;;;;10517745;28;20249;-72
2021/03/24 13:08:01;;;;;;;11.73;10.50;;;15.60;29.80;;;;;;10521430;28;20216;-72
2021/03/24 13:13:12;;;;;;;12.80;9.73;;;15.70;29.90;;;;;;10527504;28;20748;-72
2021/03/24 13:18:23;;;;;;;10.53;9.40;;;15.80;29.80;;;;;;10528493;28;20263;-72
2021/03/24 13:23:33;;;;;;;11.73;10.43;;;15.80;29.30;;;;;;10530071;28;20220;-72
2021/03/24 13:28:48;;;;;;;10.57;9.57;;;15.80;29.60;;;;;;10527886;28;20738;-72
2021/03/24 13:34:34;;;;;;;10.77;9.67;;;15.80;28.90;;;;;;10530417;28;20226;-72
2021/03/24 13:39:54;;;;;;;10.10;9.10;;;15.90;29.60;;;;;;10520860;28;20320;-71
2021/03/24 13:45:01;;;;;;;10.20;9.20;;;15.90;29.60;;;;;;10528027;28;20230;-71
2021/03/24 13:50:16;;;;;;;10.60;8.47;;;16.00;30.00;;;;;;10529166;28;20346;-72
2021/03/24 13:55:43;;;;;;;9.67;8.67;;;16.10;29.20;;;;;;10530635;28;20230;-71
2021/03/24 14:00:52;;;;;;;9.83;8.83;;;16.10;28.70;;;;;;10525105;28;20220;-72
2021/03/24 14:06:02;;;;;;;8.83;8.03;;;16.20;28.90;;;;;;10524243;28;20220;-71
2021/03/24 14:11:33;;;;;;;8.17;7.37;;;16.20;28.60;;;;;;10523355;28;20218;-71
2021/03/24 14:16:40;;;;;;;8.70;7.80;;;16.20;28.70;;;;;;10512383;28;20227;-71
2021/03/24 14:21:55;;;;;;;8.33;7.53;;;16.20;28.60;;;;;;10530550;28;20726;-72
2021/03/24 14:27:03;;;;;;;8.37;7.57;;;16.30;27.80;;;;;;10535810;28;20241;-70
2021/03/24 14:32:17;;;;;;;8.60;7.40;;;16.40;28.10;;;;;;10533142;28;20222;-68
2021/03/24 14:37:37;;;;;;;9.60;7.97;;;16.50;27.90;;;;;;10535804;28;20223;-71
2021/03/24 14:42:49;;;;;;;9.33;8.43;;;16.50;27.30;;;;;;10533566;28;20223;-71
2021/03/24 14:48:21;;;;;;;8.70;7.90;;;16.50;27.20;;;;;;10537238;28;20219;-71
2021/03/24 14:53:45;;;;;;;7.80;7.00;;;16.60;27.60;;;;;;10490007;28;20274;-70
2021/03/24 14:59:30;;;;;;;7.63;6.67;;;16.50;27.80;;;;;;10485286;28;20232;-70
2021/03/24 15:04:37;;;;;;;7.67;6.97;;;16.60;27.90;;;;;;10489984;28;20227;-71
2021/03/24 15:09:40;;;;;;;9.07;8.17;;;16.70;27.80;;;;;;10490835;28;20312;-71
2021/03/24 15:15:01;;;;;;;8.70;7.80;;;16.70;27.80;;;;;;10487869;28;20262;-70
2021/03/24 15:20:27;;;;;;;8.17;7.37;;;16.70;27.30;;;;;;10489308;28;20227;-70
2021/03/24 15:25:42;;;;;;;8.97;8.07;;;16.70;27.40;;;;;;10491076;28;20255;-70
2021/03/24 15:31:09;;;;;;;10.23;8.93;;;16.70;27.40;;;;;;10489647;28;20220;-70
2021/03/24 15:36:25;;;;;;;8.60;7.57;;;16.70;26.70;;;;;;10489115;28;20637;-70
2021/03/24 15:41:46;;;;;;;11.40;10.20;;;16.70;27.80;;;;;;10486167;28;20240;-70
2021/03/24 15:46:58;;;;;;;11.30;10.20;;;16.70;26.90;;;;;;10488280;28;20661;-69
2021/03/24 15:52:11;;;;;;;10.70;9.20;;;16.70;27.20;;;;;;10489558;28;20231;-70
2021/03/24 15:57:52;;;;;;;11.17;9.93;;;16.80;27.90;;;;;;10492785;28;20626;-70
2021/03/24 16:03:04;;;;;;;11.43;10.23;;;16.80;27.50;;;;;;10489974;28;20228;-70
2021/03/24 16:08:29;;;;;;;10.30;9.20;;;16.80;27.40;;;;;;10490460;28;20233;-70
2021/03/24 16:13:37;;;;;;;9.90;8.97;;;16.80;27.10;;;;;;10490509;28;20232;-71
2021/03/24 16:19:00;;;;;;;10.50;9.50;;;16.80;27.30;;;;;;10487506;28;20235;-70
2021/03/24 16:24:10;;;;;;;11.53;10.33;;;16.80;27.40;;;;;;10489344;28;20274;-71
2021/03/24 16:29:22;;;;;;;10.97;8.93;;;16.80;27.40;;;;;;10474267;28;20248;-71
2021/03/24 16:34:51;;;;;;;11.30;10.17;;;16.80;27.50;;;;;;10488327;28;20591;-71
2021/03/24 16:40:22;;;;;;;11.53;10.33;;;16.80;27.40;;;;;;10487233;28;20232;-71
2021/03/24 16:45:39;;;;;;;10.53;8.93;;;16.90;27.30;;;;;;10485495;28;20224;-73
2021/03/24 16:50:50;;;;;;;11.03;9.70;;;16.90;28.20;;;;;;10481687;28;20246;-71
2021/03/24 16:56:10;;;;;;;11.43;9.33;;;16.90;27.80;;;;;;10489639;28;20220;-71
2021/03/24 17:01:21;;;;;;;9.97;8.97;;;16.90;27.30;;;;;;10484277;28;20220;-70
2021/03/24 17:06:28;;;;;;;9.17;8.27;;;16.90;27.90;;;;;;10484988;28;20238;-70
2021/03/24 17:11:50;;;;;;;9.00;7.13;;;16.80;27.90;;;;;;10487065;28;20223;-71
2021/03/24 17:17:00;;;;;;;8.33;6.93;;;16.80;27.80;;;;;;10486619;28;20232;-70
2021/03/24 17:22:14;;;;;;;9.57;8.13;;;16.70;28.00;;;;;;10488778;28;20293;-71
2021/03/24 17:27:37;;;;;;;7.90;6.87;;;16.70;28.10;;;;;;10489748;28;20724;-70
2021/03/24 17:32:42;;;;;;;10.37;9.27;;;16.60;29.10;;;;;;10486516;28;20317;-75
2021/03/24 17:38:08;;;;;;;10.27;9.13;;;16.60;29.10;;;;;;10480254;28;20232;-75
2021/03/24 17:43:21;;;;;;;10.23;8.90;;;16.50;28.40;;;;;;10478699;28;20232;-75
2021/03/24 17:48:36;;;;;;;10.60;8.70;;;16.50;28.30;;;;;;10486513;28;20228;-75
2021/03/24 17:53:46;;;;;;;7.87;6.97;;;16.40;28.10;;;;;;10488037;28;20302;-75
2021/03/24 17:59:17;;;;;;;7.63;6.47;;;16.30;29.00;;;;;;10480443;28;20323;-75
2021/03/24 18:04:24;;;;;;;6.03;5.43;;;16.20;28.20;;;;;;10478694;28;20587;-75
2021/03/24 18:09:31;;;;;;;9.87;6.73;;;16.00;28.30;;;;;;10479228;28;20228;-75
2021/03/24 18:14:43;;;;;;;7.67;6.00;;;15.80;28.40;;;;;;10476198;28;20224;-75
2021/03/24 18:19:51;;;;;;;8.53;6.93;;;15.70;28.30;;;;;;10480427;28;20236;-76
2021/03/24 18:25:06;;;;;;;7.50;6.70;;;15.50;28.40;;;;;;10479101;28;20228;-75
2021/03/24 18:30:16;;;;;;;15.47;13.00;;;15.40;28.50;;;;;;10480440;28;20684;-75
2021/03/24 18:35:23;;;;;;;12.20;10.17;;;15.30;28.40;;;;;;10479503;28;20228;-76
2021/03/24 18:40:28;;;;;;;12.43;11.13;;;15.20;28.50;;;;;;10481163;28;20311;-75
2021/03/24 18:45:33;;;;;;;13.93;11.10;;;15.00;28.60;;;;;;10479595;28;20323;-75
2021/03/24 18:50:39;;;;;;;15.07;12.87;;;14.80;28.60;;;;;;10478646;28;20598;-75
2021/03/24 18:55:41;;;;;;;16.47;14.13;;;14.80;28.60;;;;;;10480605;28;20448;-75
2021/03/24 19:00:51;;;;;;;21.10;14.53;;;14.60;28.50;;;;;;10475873;28;20255;-75
2021/03/24 19:06:07;;;;;;;12.03;10.27;;;14.30;28.50;;;;;;10481634;28;20250;-75
2021/03/24 19:11:29;;;;;;;9.23;8.33;;;14.10;28.80;;;;;;10487894;28;20212;-75
2021/03/24 19:16:38;;;;;;;16.57;12.87;;;13.70;28.90;;;;;;10483870;28;20341;-75
2021/03/24 19:21:44;;;;;;;15.93;12.20;;;13.60;29.10;;;;;;10487812;28;20228;-75
2021/03/24 19:26:58;;;;;;;11.50;9.10;;;13.40;29.10;;;;;;10486528;28;20236;-75
2021/03/24 19:32:24;;;;;;;12.07;9.90;;;13.20;29.20;;;;;;10486669;28;20234;-76
2021/03/24 19:37:31;;;;;;;12.10;9.70;;;13.10;29.30;;;;;;10486717;28;20931;-75
2021/03/24 19:42:51;;;;;;;12.20;10.23;;;13.00;29.40;;;;;;10478723;28;20224;-75
2021/03/24 19:47:57;;;;;;;10.77;8.83;;;12.90;29.40;;;;;;10486637;28;20252;-75
2021/03/24 19:53:02;;;;;;;11.03;9.40;;;12.80;29.50;;;;;;10492166;28;20239;-75
2021/03/24 19:58:14;;;;;;;11.10;9.10;;;12.70;29.60;;;;;;10485389;28;20258;-75
2021/03/24 20:03:24;;;;;;;11.43;9.77;;;12.60;29.70;;;;;;10487151;28;20883;-75
2021/03/24 20:08:40;;;;;;;10.50;8.70;;;12.50;29.80;;;;;;10481957;28;20239;-75
2021/03/24 20:13:48;;;;;;;10.40;9.10;;;12.50;30.00;;;;;;10481033;28;20268;-75
2021/03/24 20:18:53;;;;;;;9.73;8.10;;;12.40;29.70;;;;;;10481959;28;20474;-75
2021/03/24 20:24:00;;;;;;;9.60;8.57;;;12.30;29.90;;;;;;10485407;28;20235;-75
2021/03/24 20:29:03;;;;;;;11.20;9.60;;;12.30;29.90;;;;;;10484174;28;20236;-75
2021/03/24 20:34:15;;;;;;;14.50;11.03;;;12.20;29.80;;;;;;10478536;28;20301;-76
2021/03/24 20:39:21;;;;;;;11.33;10.13;;;12.10;29.80;;;;;;10481126;28;20236;-75
2021/03/24 20:44:27;;;;;;;10.83;9.80;;;12.00;29.70;;;;;;10484501;28;20256;-75
2021/03/24 20:49:40;;;;;;;10.17;9.07;;;11.80;29.50;;;;;;10478339;28;20225;-75
2021/03/24 20:54:43;;;;;;;9.93;8.73;;;11.60;29.40;;;;;;10484906;28;20244;-71
2021/03/24 20:59:45;;;;;;;10.30;8.60;;;11.40;29.70;;;;;;10477817;28;20266;-71
2021/03/24 21:04:47;;;;;;;11.57;9.93;;;11.30;29.70;;;;;;10483935;28;20456;-71
2021/03/24 21:09:51;;;;;;;9.80;8.20;;;11.30;29.80;;;;;;10478650;28;20358;-71
2021/03/24 21:14:54;;;;;;;10.23;8.60;;;11.20;29.90;;;;;;10480929;28;20627;-71
2021/03/24 21:19:57;;;;;;;9.37;7.90;;;11.20;29.90;;;;;;10480181;28;20228;-71
2021/03/24 21:25:01;;;;;;;9.83;7.80;;;11.10;29.70;;;;;;10479817;28;20236;-71
2021/03/24 21:30:05;;;;;;;10.40;8.53;;;11.00;29.90;;;;;;10475628;28;20231;-71
2021/03/24 21:35:08;;;;;;;10.53;7.30;;;11.00;29.90;;;;;;10480511;28;20266;-71
2021/03/24 21:40:13;;;;;;;11.57;8.60;;;10.90;29.90;;;;;;10480716;28;20224;-71
2021/03/24 21:45:16;;;;;;;8.97;7.47;;;10.80;30.00;;;;;;10475030;28;20221;-71
2021/03/24 21:50:22;;;;;;;9.90;7.97;;;10.70;30.00;;;;;;10476520;28;20731;-71
2021/03/24 21:55:26;;;;;;;9.97;8.83;;;10.60;30.30;;;;;;10482546;28;20556;-71
2021/03/24 22:00:33;;;;;;;12.73;8.30;;;10.50;30.30;;;;;;10478454;28;20230;-71
2021/03/24 22:05:35;;;;;;;15.63;11.63;;;10.40;30.30;;;;;;10478205;28;20220;-71
2021/03/24 22:10:39;;;;;;;12.27;9.80;;;10.40;30.20;;;;;;10479690;28;20234;-71
2021/03/24 22:15:50;;;;;;;11.00;9.20;;;10.30;30.20;;;;;;10480113;28;20812;-71
2021/03/24 22:20:58;;;;;;;12.43;10.07;;;10.30;30.50;;;;;;10479562;28;20263;-71
2021/03/24 22:26:02;;;;;;;13.17;10.80;;;10.20;30.60;;;;;;10475361;28;20234;-71
2021/03/24 22:31:20;;;;;;;12.13;9.60;;;10.20;30.50;;;;;;10477607;28;20725;-71
2021/03/24 22:36:27;;;;;;;9.63;8.20;;;10.10;30.80;;;;;;10477027;28;20255;-71
2021/03/24 22:41:33;;;;;;;10.47;8.47;;;10.10;30.40;;;;;;10484139;28;20220;-71
2021/03/24 22:47:00;;;;;;;9.60;8.60;;;10.00;30.30;;;;;;10486827;28;20738;-71
2021/03/24 22:52:19;;;;;;;10.00;8.47;;;9.90;31.80;;;;;;10480913;28;20216;-71
2021/03/24 22:57:27;;;;;;;8.77;6.40;;;9.80;31.90;;;;;;10487507;28;21077;-71
2021/03/24 23:02:34;;;;;;;10.77;8.97;;;9.80;31.60;;;;;;10484503;28;20232;-71
2021/03/24 23:07:37;;;;;;;10.43;7.90;;;9.80;31.60;;;;;;10484273;28;20228;-71
2021/03/24 23:12:45;;;;;;;9.40;8.40;;;9.70;31.40;;;;;;10486778;28;20586;-71
2021/03/24 23:17:53;;;;;;;10.40;8.10;;;9.70;31.60;;;;;;10485114;28;20524;-71
2021/03/24 23:22:56;;;;;;;9.53;8.43;;;9.60;31.60;;;;;;10486223;28;20232;-71
2021/03/24 23:28:04;;;;;;;9.60;8.60;;;9.50;31.40;;;;;;10481215;28;20228;-71
2021/03/24 23:33:07;;;;;;;14.00;12.53;;;9.40;31.80;;;;;;10483236;28;20228;-71
2021/03/24 23:38:10;;;;;;;11.97;10.13;;;9.40;31.60;;;;;;10480659;28;20773;-71
2021/03/24 23:43:15;;;;;;;12.53;9.37;;;9.30;31.70;;;;;;10483013;28;20228;-71
2021/03/24 23:48:23;;;;;;;9.10;8.00;;;9.30;31.80;;;;;;10485651;28;20232;-71
2021/03/24 23:53:26;;;;;;;9.80;8.80;;;9.20;31.90;;;;;;10484084;28;20232;-71
2021/03/24 23:58:32;;;;;;;9.83;8.00;;;9.10;31.70;;;;;;10486340;28;20224;-71
